Time;durP1;ratioP1;P1;durP2;ratioP2;P2;SDS_P1;SDS_P2;PMS_P1;PMS_P2;Temp;Humidity;BMP_temperature;BMP_pressure;BME280_temperature;BME280_humidity;BME280_pressure;Samples;Min_cycle;Max_cycle;Signal;HPM_P1;HPM_P2
2022/12/14 00:00:12;;;;;;;2.80;1.10;;;-1.20;99.90;;;;;;5095857;28;20555;-57
2022/12/14 00:02:39;;;;;;;4.53;1.40;;;-1.30;99.90;;;;;;5102559;28;20453;-57
2022/12/14 00:05:06;;;;;;;3.13;1.53;;;-1.30;99.90;;;;;;5116490;28;20907;-57
2022/12/14 00:07:33;;;;;;;3.27;1.50;;;-1.30;99.90;;;;;;5116694;28;20525;-56
2022/12/14 00:10:00;;;;;;;5.70;1.40;;;-1.20;99.90;;;;;;5115573;28;20507;-56
2022/12/14 00:12:28;;;;;;;5.30;2.03;;;-1.20;99.90;;;;;;5115783;28;20552;-57
2022/12/14 00:14:55;;;;;;;5.20;1.70;;;-1.00;99.90;;;;;;5116630;28;20541;-58
2022/12/14 00:17:22;;;;;;;4.33;2.03;;;-1.00;99.90;;;;;;5116558;28;20529;-56
2022/12/14 00:19:49;;;;;;;5.60;1.80;;;-1.00;99.90;;;;;;5115932;28;20484;-57
2022/12/14 00:22:16;;;;;;;5.63;2.00;;;-1.00;99.90;;;;;;5116258;28;20487;-55
2022/12/14 00:24:43;;;;;;;6.30;2.17;;;-1.10;99.90;;;;;;5116067;28;20497;-57
2022/12/14 00:27:10;;;;;;;4.80;1.53;;;-1.10;99.90;;;;;;5116069;28;20545;-58
2022/12/14 00:29:38;;;;;;;4.57;1.73;;;-1.20;99.90;;;;;;5116674;28;20476;-56
2022/12/14 00:32:05;;;;;;;4.67;2.03;;;-1.10;99.90;;;;;;5115886;28;20456;-56
2022/12/14 00:34:32;;;;;;;5.33;1.50;;;-1.20;99.90;;;;;;5104416;28;20565;-57
2022/12/14 00:36:59;;;;;;;6.80;2.50;;;-1.20;99.90;;;;;;5094512;28;20485;-55
2022/12/14 00:39:26;;;;;;;5.13;1.50;;;-1.20;99.90;;;;;;5095693;28;20446;-54
2022/12/14 00:41:56;;;;;;;4.30;1.40;;;-1.20;99.90;;;;;;5096263;28;20995;-57
2022/12/14 00:44:23;;;;;;;3.43;1.40;;;-1.20;99.90;;;;;;5080299;28;20486;-59
2022/12/14 00:46:51;;;;;;;5.63;1.50;;;-1.30;99.90;;;;;;5075332;28;20527;-57
2022/12/14 00:49:18;;;;;;;4.50;2.57;;;-1.20;99.90;;;;;;5077370;28;20466;-56
2022/12/14 00:51:45;;;;;;;4.87;1.90;;;-1.20;99.90;;;;;;5078647;28;20462;-57
2022/12/14 00:54:12;;;;;;;4.13;1.53;;;-1.20;99.90;;;;;;5079194;28;20486;-57
2022/12/14 00:56:39;;;;;;;9.80;2.70;;;-1.30;99.90;;;;;;5079325;28;20501;-57
2022/12/14 00:59:06;;;;;;;3.87;2.30;;;-1.30;99.90;;;;;;5098061;28;20446;-57
2022/12/14 01:01:33;;;;;;;5.43;2.07;;;-1.40;99.90;;;;;;5099990;28;20473;-56
2022/12/14 01:06:43;;;;;;;3.63;1.77;;;-1.40;99.90;;;;;;5099615;28;20751;-58
2022/12/14 01:09:10;;;;;;;3.07;2.47;;;-1.40;99.90;;;;;;5119857;28;21090;-59
2022/12/14 01:11:37;;;;;;;7.45;4.03;;;-1.40;99.90;;;;;;5119393;28;20420;-54
2022/12/14 01:14:04;;;;;;;8.77;3.97;;;-1.40;99.90;;;;;;5118883;28;20460;-56
2022/12/14 01:16:31;;;;;;;9.13;5.00;;;-1.40;99.90;;;;;;5102446;28;20818;-55
2022/12/14 01:18:59;;;;;;;8.10;5.20;;;-1.30;99.90;;;;;;5098314;28;20425;-56
2022/12/14 01:21:28;;;;;;;8.60;4.82;;;-1.30;99.90;;;;;;5098369;28;20465;-56
2022/12/14 01:23:57;;;;;;;7.45;4.50;;;-1.20;99.90;;;;;;5096269;28;20457;-56
2022/12/14 01:26:25;;;;;;;7.93;4.35;;;-1.30;99.90;;;;;;5098524;28;20854;-57
2022/12/14 01:28:56;;;;;;;10.52;5.28;;;-1.20;99.90;;;;;;5097949;28;20841;-56
2022/12/14 01:31:26;;;;;;;9.05;5.38;;;-1.20;99.90;;;;;;5097370;28;20426;-57
2022/12/14 01:33:53;;;;;;;8.30;4.90;;;-1.20;99.90;;;;;;5088859;28;20803;-57
2022/12/14 01:36:22;;;;;;;7.15;5.10;;;-1.10;99.90;;;;;;5076436;28;20428;-57
2022/12/14 01:38:53;;;;;;;6.45;4.55;;;-1.20;99.90;;;;;;5076476;28;20423;-56
2022/12/14 01:41:25;;;;;;;6.53;5.40;;;-1.30;99.90;;;;;;5077350;28;20423;-56
2022/12/14 01:43:53;;;;;;;7.78;5.00;;;-1.30;99.90;;;;;;5077100;28;20896;-58
2022/12/14 01:46:27;;;;;;;8.63;4.60;;;-1.30;99.90;;;;;;5076919;28;20482;-57
2022/12/14 01:48:59;;;;;;;7.57;5.00;;;-1.10;99.90;;;;;;5077457;28;20419;-57
2022/12/14 01:51:29;;;;;;;7.18;4.70;;;-1.10;99.90;;;;;;5077193;28;20428;-57
2022/12/14 01:53:59;;;;;;;6.97;4.28;;;-0.90;99.90;;;;;;5077176;28;20526;-58
2022/12/14 01:56:26;;;;;;;8.07;5.45;;;-0.90;99.90;;;;;;5076856;28;20477;-58
2022/12/14 01:58:53;;;;;;;11.98;5.78;;;-0.90;99.90;;;;;;5076262;28;20882;-56
2022/12/14 02:01:20;;;;;;;11.13;5.30;;;-0.80;99.90;;;;;;5076040;28;20478;-57
2022/12/14 02:03:51;;;;;;;7.00;4.32;;;-0.80;99.90;;;;;;5074909;28;20502;-59
2022/12/14 02:06:22;;;;;;;7.68;4.05;;;-0.90;99.90;;;;;;5074500;28;20431;-57
2022/12/14 02:08:52;;;;;;;7.00;4.32;;;-0.90;99.90;;;;;;5074382;28;20460;-58
2022/12/14 02:11:28;;;;;;;7.93;4.50;;;-0.90;99.90;;;;;;5075468;28;20800;-56
2022/12/14 02:13:55;;;;;;;7.37;4.50;;;-0.90;99.90;;;;;;5075398;28;20474;-57
2022/12/14 02:16:22;;;;;;;6.57;4.10;;;-0.90;99.90;;;;;;5075271;28;20756;-57
2022/12/14 02:18:49;;;;;;;8.25;4.43;;;-1.00;99.90;;;;;;5076505;28;20463;-55
2022/12/14 02:21:23;;;;;;;8.85;4.95;;;-1.00;99.90;;;;;;5076558;28;20493;-55
2022/12/14 02:24:19;;;;;;;7.97;4.90;;;-1.00;99.90;;;;;;5077243;28;20807;-57
2022/12/14 02:27:04;;;;;;;6.72;4.63;;;-1.00;99.90;;;;;;5076698;28;20466;-54
2022/12/14 02:29:51;;;;;;;8.05;4.70;;;-1.10;99.90;;;;;;5076420;28;20455;-55
2022/12/14 02:32:43;;;;;;;9.60;5.47;;;-1.10;99.90;;;;;;5076809;28;20470;-56
2022/12/14 02:35:17;;;;;;;7.97;4.40;;;-1.00;99.90;;;;;;5076282;28;20901;-56
2022/12/14 02:37:53;;;;;;;7.78;4.90;;;-1.00;99.90;;;;;;5076617;28;20887;-56
2022/12/14 02:40:28;;;;;;;7.78;4.65;;;-0.90;99.90;;;;;;5076064;28;20448;-56
2022/12/14 02:43:03;;;;;;;7.30;4.90;;;-0.80;99.90;;;;;;5076575;28;20470;-57
2022/12/14 02:45:39;;;;;;;8.13;5.20;;;-0.90;99.90;;;;;;5076578;28;20884;-58
2022/12/14 02:48:09;;;;;;;10.30;4.93;;;-1.00;99.90;;;;;;5076186;28;20870;-57
2022/12/14 02:50:43;;;;;;;6.93;4.88;;;-1.00;99.90;;;;;;5076448;28;20425;-57
2022/12/14 02:53:16;;;;;;;8.65;4.75;;;-1.00;99.90;;;;;;5076028;28;20466;-57
2022/12/14 02:55:48;;;;;;;7.70;4.95;;;-1.10;99.90;;;;;;5075670;28;20432;-55
2022/12/14 02:58:22;;;;;;;8.95;5.45;;;-1.10;99.90;;;;;;5075827;28;20455;-56
2022/12/14 03:00:50;;;;;;;7.50;4.32;;;-1.00;99.90;;;;;;5075623;28;20419;-55
2022/12/14 03:03:17;;;;;;;7.70;4.88;;;-0.90;99.90;;;;;;5076327;28;20459;-57
2022/12/14 03:05:55;;;;;;;8.45;5.18;;;-1.00;99.90;;;;;;5075879;28;20843;-57
2022/12/14 03:08:24;;;;;;;7.93;4.85;;;-0.90;99.90;;;;;;5075175;28;20447;-57
2022/12/14 03:10:56;;;;;;;7.18;5.10;;;-0.90;99.90;;;;;;5075935;28;20502;-58
2022/12/14 03:13:26;;;;;;;8.37;5.73;;;-0.90;99.90;;;;;;5075694;28;20501;-55
2022/12/14 03:15:57;;;;;;;8.00;4.75;;;-1.00;99.90;;;;;;5083497;28;20466;-55
2022/12/14 03:18:28;;;;;;;8.30;5.20;;;-1.00;99.90;;;;;;5096436;28;20468;-54
2022/12/14 03:20:58;;;;;;;7.47;4.93;;;-0.90;99.90;;;;;;5095984;28;20440;-53
2022/12/14 03:23:28;;;;;;;9.98;5.78;;;-0.90;99.90;;;;;;5096074;28;20858;-57
2022/12/14 03:26:01;;;;;;;7.65;4.85;;;-0.90;99.90;;;;;;5094280;28;20461;-57
2022/12/14 03:28:33;;;;;;;9.60;6.60;;;-0.90;99.90;;;;;;5095383;28;20460;-57
2022/12/14 03:31:05;;;;;;;8.95;5.85;;;-0.90;99.90;;;;;;5095791;28;20446;-57
2022/12/14 03:33:35;;;;;;;9.60;6.07;;;-0.90;99.90;;;;;;5095669;28;20443;-57
2022/12/14 03:36:11;;;;;;;10.32;6.47;;;-0.90;99.90;;;;;;5095590;28;20521;-55
2022/12/14 03:38:42;;;;;;;9.32;6.32;;;-0.80;99.90;;;;;;5095528;28;20472;-55
2022/12/14 03:41:19;;;;;;;8.85;6.40;;;-0.80;99.90;;;;;;5095964;28;20445;-57
2022/12/14 03:44:02;;;;;;;10.73;6.35;;;-0.80;99.90;;;;;;5095462;28;20455;-57
2022/12/14 03:46:39;;;;;;;9.85;6.20;;;-1.00;99.90;;;;;;5095080;28;20520;-54
2022/12/14 03:49:13;;;;;;;10.15;7.15;;;-1.00;99.90;;;;;;5095551;28;20543;-56
2022/12/14 03:51:50;;;;;;;10.18;7.20;;;-0.90;99.90;;;;;;5095508;28;20483;-56
2022/12/14 03:54:24;;;;;;;11.90;7.05;;;-1.00;99.90;;;;;;5095160;28;20920;-55
2022/12/14 03:56:56;;;;;;;12.73;6.65;;;-1.00;99.90;;;;;;5095469;28;20483;-56
2022/12/14 03:59:31;;;;;;;11.88;6.60;;;-1.00;99.90;;;;;;5095568;28;20833;-54
2022/12/14 04:02:07;;;;;;;10.18;6.68;;;-1.00;99.90;;;;;;5095355;28;20487;-56
2022/12/14 04:04:39;;;;;;;11.68;7.45;;;-0.90;99.90;;;;;;5095141;28;20467;-55
2022/12/14 04:07:12;;;;;;;11.50;6.82;;;-1.00;99.90;;;;;;5095237;28;20534;-55
2022/12/14 04:09:48;;;;;;;10.43;7.57;;;-1.00;99.90;;;;;;5095020;28;20457;-55
2022/12/14 04:20:49;;;;;;;10.15;7.50;;;-1.00;99.90;;;;;;5074417;28;20743;-57
2022/12/14 04:26:03;;;;;;;12.88;7.28;;;-1.10;99.90;;;;;;5073876;28;20747;-57
2022/12/14 04:26:11;;;;;;;12.02;7.35;;;-1.10;99.90;;;;;;5074769;28;20522;-56
2022/12/14 04:31:30;;;;;;;10.43;6.70;;;-1.00;99.90;;;;;;5087269;28;20965;-55
2022/12/14 04:34:02;;;;;;;12.15;7.68;;;-1.00;99.90;;;;;;5094943;28;20757;-56
2022/12/14 04:36:34;;;;;;;11.15;7.18;;;-1.00;99.90;;;;;;5094692;28;20833;-57
2022/12/14 04:39:05;;;;;;;12.40;6.93;;;-1.10;99.90;;;;;;5095039;28;20837;-56
2022/12/14 04:41:37;;;;;;;10.82;7.53;;;-1.20;99.90;;;;;;5094974;28;20466;-54
2022/12/14 04:44:09;;;;;;;11.50;7.97;;;-1.20;99.90;;;;;;5094440;28;20452;-56
2022/12/14 04:46:39;;;;;;;11.10;7.63;;;-1.20;99.90;;;;;;5094752;28;20869;-56
2022/12/14 04:49:18;;;;;;;10.77;7.45;;;-1.20;99.90;;;;;;5095369;28;20553;-55
2022/12/14 04:51:49;;;;;;;11.18;7.63;;;-1.20;99.90;;;;;;5095208;28;20469;-55
2022/12/14 04:54:24;;;;;;;10.35;7.60;;;-1.20;99.90;;;;;;5094838;28;20568;-56
2022/12/14 04:56:56;;;;;;;12.93;8.30;;;-1.20;99.90;;;;;;5095263;28;20449;-56
2022/12/14 04:59:23;;;;;;;11.07;7.87;;;-1.20;99.90;;;;;;5094720;28;20845;-56
2022/12/14 05:02:05;;;;;;;10.40;7.60;;;-1.20;99.90;;;;;;5094732;28;20479;-56
2022/12/14 05:04:53;;;;;;;11.50;7.53;;;-1.10;99.90;;;;;;5094518;28;20506;-57
2022/12/14 05:07:30;;;;;;;13.25;8.48;;;-1.10;99.90;;;;;;5094931;28;20922;-56
2022/12/14 05:10:00;;;;;;;12.03;7.40;;;-1.20;99.90;;;;;;5094204;28;20483;-56
2022/12/14 05:12:35;;;;;;;13.15;8.02;;;-1.10;99.90;;;;;;5093821;28;20479;-55
2022/12/14 05:15:08;;;;;;;10.40;7.93;;;-1.10;99.90;;;;;;5093847;28;20519;-57
2022/12/14 05:17:36;;;;;;;12.75;7.18;;;-1.10;99.90;;;;;;5094164;28;20809;-57
2022/12/14 05:20:06;;;;;;;11.25;8.73;;;-1.10;99.90;;;;;;5093843;28;20802;-57
2022/12/14 05:22:33;;;;;;;11.00;6.78;;;-1.00;99.90;;;;;;5093920;28;20429;-55
2022/12/14 05:25:00;;;;;;;10.43;7.45;;;-1.00;99.90;;;;;;5094061;28;20454;-57
2022/12/14 05:27:27;;;;;;;10.68;7.47;;;-1.00;99.90;;;;;;5094735;28;20421;-57
2022/12/14 05:29:53;;;;;;;10.75;7.55;;;-1.00;99.90;;;;;;5094553;28;20468;-55
2022/12/14 05:32:20;;;;;;;11.30;8.10;;;-0.90;99.90;;;;;;5094646;28;20449;-57
2022/12/14 05:34:47;;;;;;;13.68;8.63;;;-0.80;99.90;;;;;;5094281;28;20472;-55
2022/12/14 05:37:16;;;;;;;10.40;7.87;;;-0.90;99.90;;;;;;5097027;28;20549;-57
2022/12/14 05:39:43;;;;;;;13.07;8.52;;;-0.80;99.90;;;;;;5097969;28;20497;-57
2022/12/14 05:42:09;;;;;;;11.82;7.88;;;-0.80;99.90;;;;;;5097618;28;20724;-54
2022/12/14 05:44:36;;;;;;;11.57;8.23;;;-0.80;99.90;;;;;;5097732;28;20865;-55
2022/12/14 05:47:03;;;;;;;10.85;7.32;;;-0.70;99.90;;;;;;5097692;28;20461;-57
2022/12/14 05:49:30;;;;;;;10.80;7.68;;;-0.70;99.90;;;;;;5097698;28;20418;-57
2022/12/14 05:51:57;;;;;;;11.43;8.32;;;-0.70;99.90;;;;;;5096659;28;21003;-56
2022/12/14 05:54:25;;;;;;;12.30;7.65;;;-0.80;99.90;;;;;;5096358;28;20420;-56
2022/12/14 05:56:53;;;;;;;11.70;8.60;;;-0.60;99.90;;;;;;5096499;28;21014;-55
2022/12/14 05:59:19;;;;;;;15.77;9.70;;;-0.60;99.90;;;;;;5095247;28;20435;-57
2022/12/14 06:01:48;;;;;;;12.13;8.40;;;-0.60;99.90;;;;;;5095601;28;20897;-57
2022/12/14 06:04:16;;;;;;;10.40;7.95;;;-0.60;99.90;;;;;;5096434;28;20457;-57
2022/12/14 06:06:43;;;;;;;16.25;9.43;;;-0.70;99.90;;;;;;5096993;28;20736;-57
2022/12/14 06:09:14;;;;;;;19.52;10.70;;;-0.70;99.90;;;;;;5096720;28;20467;-51
2022/12/14 06:11:44;;;;;;;13.95;9.23;;;-0.80;99.90;;;;;;5096721;28;20853;-57
2022/12/14 06:14:12;;;;;;;14.95;9.57;;;-0.80;99.90;;;;;;5085864;28;20437;-57
2022/12/14 06:16:41;;;;;;;13.38;10.20;;;-0.80;99.90;;;;;;5055848;28;20465;-55
2022/12/14 06:19:08;;;;;;;11.73;9.00;;;-0.90;99.90;;;;;;5054216;28;20441;-57
2022/12/14 06:21:37;;;;;;;14.88;10.52;;;-0.80;99.90;;;;;;5052431;28;20465;-58
2022/12/14 06:24:08;;;;;;;14.85;9.27;;;-0.90;99.90;;;;;;5059188;28;20447;-58
2022/12/14 06:26:36;;;;;;;13.25;9.95;;;-0.80;99.90;;;;;;5074748;28;20477;-57
2022/12/14 06:29:04;;;;;;;13.50;10.15;;;-0.80;99.90;;;;;;5074822;28;20996;-54
2022/12/14 06:31:32;;;;;;;13.93;10.65;;;-0.80;99.90;;;;;;5075139;28;20530;-57
2022/12/14 06:34:01;;;;;;;13.17;10.13;;;-0.90;99.90;;;;;;5076270;28;20608;-57
2022/12/14 06:36:30;;;;;;;16.02;11.07;;;-0.90;99.90;;;;;;5075034;28;20435;-57
2022/12/14 06:39:00;;;;;;;15.70;11.05;;;-0.80;99.90;;;;;;5070047;28;20866;-54
2022/12/14 06:41:27;;;;;;;16.70;11.30;;;-0.90;99.90;;;;;;5076046;28;20478;-57
2022/12/14 06:43:54;;;;;;;15.43;11.20;;;-1.00;99.90;;;;;;5074802;28;20901;-57
2022/12/14 06:46:25;;;;;;;17.25;11.75;;;-1.00;99.90;;;;;;5074230;28;20431;-54
2022/12/14 06:48:53;;;;;;;18.27;12.10;;;-1.00;99.90;;;;;;5072611;28;20894;-56
2022/12/14 06:51:20;;;;;;;18.65;12.45;;;-0.90;99.90;;;;;;5074488;28;20525;-55
2022/12/14 06:53:50;;;;;;;12.68;10.23;;;-1.00;99.90;;;;;;5074610;28;20877;-56
2022/12/14 06:56:19;;;;;;;17.77;11.30;;;-0.90;99.90;;;;;;5074289;28;20463;-57
2022/12/14 06:58:46;;;;;;;18.00;12.60;;;-0.90;99.90;;;;;;5074120;28;20462;-53
2022/12/14 07:01:15;;;;;;;18.90;12.52;;;-1.00;99.90;;;;;;5074494;28;20475;-57
2022/12/14 07:03:46;;;;;;;15.80;11.02;;;-1.00;99.90;;;;;;5075277;28;20435;-57
2022/12/14 07:06:13;;;;;;;17.17;12.05;;;-1.00;99.90;;;;;;5075290;28;20498;-56
2022/12/14 07:08:40;;;;;;;14.63;11.05;;;-1.00;99.90;;;;;;5080604;28;20466;-57
2022/12/14 07:11:10;;;;;;;18.77;12.83;;;-0.90;99.90;;;;;;5093938;28;20437;-54
2022/12/14 07:13:37;;;;;;;19.63;13.52;;;-1.00;99.90;;;;;;5104206;28;20465;-56
2022/12/14 07:16:06;;;;;;;20.15;12.10;;;-1.00;99.90;;;;;;5112616;28;20468;-55
2022/12/14 07:18:34;;;;;;;19.58;13.23;;;-1.00;99.90;;;;;;5093191;28;20803;-57
2022/12/14 07:21:03;;;;;;;19.50;13.40;;;-1.00;99.90;;;;;;5101303;28;20518;-57
2022/12/14 07:23:32;;;;;;;18.10;12.68;;;-0.90;99.90;;;;;;5103309;28;20415;-56
2022/12/14 07:26:02;;;;;;;18.08;12.13;;;-0.80;99.90;;;;;;5093273;28;20479;-57
2022/12/14 07:28:29;;;;;;;19.75;12.57;;;-0.80;99.90;;;;;;5094156;28;20683;-55
2022/12/14 07:30:56;;;;;;;18.27;12.57;;;-0.90;99.90;;;;;;5093004;28;20426;-57
2022/12/14 07:33:24;;;;;;;16.75;11.50;;;-0.80;99.90;;;;;;5093226;28;20438;-56
2022/12/14 07:35:51;;;;;;;19.55;13.00;;;-0.80;99.90;;;;;;5092835;28;20521;-55
2022/12/14 07:38:19;;;;;;;18.33;12.02;;;-0.70;99.90;;;;;;5092258;28;20842;-54
2022/12/14 07:40:46;;;;;;;18.38;12.52;;;-0.70;99.90;;;;;;5087432;28;20493;-51
2022/12/14 07:43:13;;;;;;;18.17;12.13;;;-0.50;99.90;;;;;;5089283;28;20434;-55
2022/12/14 07:45:40;;;;;;;17.55;11.48;;;-0.40;99.90;;;;;;5092478;28;20759;-57
2022/12/14 07:48:07;;;;;;;18.40;12.27;;;-0.30;99.90;;;;;;5093153;28;20414;-58
2022/12/14 07:50:34;;;;;;;16.40;11.85;;;-0.30;99.90;;;;;;5092361;28;20421;-57
2022/12/14 07:53:01;;;;;;;15.60;11.48;;;-0.50;99.90;;;;;;5091780;28;20529;-59
2022/12/14 07:55:30;;;;;;;17.33;12.02;;;-0.50;99.90;;;;;;5093463;28;20433;-58
2022/12/14 07:57:57;;;;;;;17.77;12.10;;;-0.50;99.90;;;;;;5092722;28;20568;-59
2022/12/14 08:00:24;;;;;;;16.35;12.00;;;-0.50;99.90;;;;;;5091813;28;20465;-59
2022/12/14 08:02:54;;;;;;;18.08;11.82;;;-0.40;99.90;;;;;;5094787;28;20437;-57
2022/12/14 08:05:21;;;;;;;17.50;12.88;;;-0.50;99.90;;;;;;5092377;28;20422;-59
2022/12/14 08:07:48;;;;;;;16.40;11.50;;;-0.50;99.90;;;;;;5105280;28;20448;-59
2022/12/14 08:10:15;;;;;;;18.67;12.05;;;-0.50;99.90;;;;;;5083433;28;20758;-59
2022/12/14 08:12:44;;;;;;;17.33;12.93;;;-0.50;99.90;;;;;;5089959;28;20437;-59
2022/12/14 08:15:11;;;;;;;17.58;12.40;;;-0.50;99.90;;;;;;5092514;28;20417;-59
2022/12/14 08:17:37;;;;;;;10.40;5.87;;;-0.50;99.90;;;;;;5093339;28;20292;-59
2022/12/14 08:20:06;;;;;;;11.63;7.87;;;-0.40;99.90;;;;;;5092029;28;20493;-59
2022/12/14 08:22:33;;;;;;;17.70;7.57;;;-0.30;99.90;;;;;;5093148;28;21070;-59
2022/12/14 08:25:00;;;;;;;16.60;6.17;;;-0.20;99.90;;;;;;5093024;28;20472;-59
2022/12/14 08:27:27;;;;;;;12.90;6.43;;;-0.10;99.90;;;;;;5089473;28;20512;-58
2022/12/14 08:29:55;;;;;;;13.07;5.80;;;-0.10;99.90;;;;;;5088135;28;20832;-58
2022/12/14 08:32:22;;;;;;;10.47;5.70;;;0.00;99.90;;;;;;5075892;28;20897;-57
2022/12/14 08:34:49;;;;;;;10.50;5.00;;;0.00;99.90;;;;;;5094647;28;20450;-59
2022/12/14 08:37:16;;;;;;;17.10;6.83;;;0.10;99.90;;;;;;5096017;28;20481;-58
2022/12/14 08:39:43;;;;;;;12.00;6.03;;;0.10;99.90;;;;;;5105532;28;20492;-59
2022/12/14 08:42:10;;;;;;;10.70;7.20;;;0.10;99.90;;;;;;5100100;28;20467;-59
2022/12/14 08:44:37;;;;;;;11.93;5.20;;;0.00;99.90;;;;;;5095035;28;20446;-58
2022/12/14 08:47:05;;;;;;;10.60;5.07;;;0.10;99.90;;;;;;5096861;28;20469;-58
2022/12/14 08:49:32;;;;;;;14.53;7.57;;;0.00;99.90;;;;;;5108634;28;20812;-58
2022/12/14 08:51:59;;;;;;;13.53;6.83;;;-0.10;99.90;;;;;;5099799;28;20493;-58
2022/12/14 08:54:26;;;;;;;10.60;4.90;;;-0.20;99.90;;;;;;5093606;28;20467;-58
2022/12/14 08:56:53;;;;;;;15.13;6.73;;;-0.10;99.90;;;;;;5094182;28;20477;-56
2022/12/14 08:59:20;;;;;;;11.30;5.83;;;0.00;99.90;;;;;;5110184;28;20526;-56
2022/12/14 09:01:47;;;;;;;15.57;6.60;;;0.00;99.90;;;;;;5113494;28;20488;-58
2022/12/14 09:04:15;;;;;;;13.47;5.10;;;-0.10;99.90;;;;;;5092337;28;20461;-58
2022/12/14 09:06:42;;;;;;;6.93;3.77;;;-0.10;99.90;;;;;;5091257;28;20492;-57
2022/12/14 09:09:09;;;;;;;12.20;5.17;;;-0.10;99.90;;;;;;5091199;28;21082;-57
2022/12/14 09:11:36;;;;;;;15.00;7.97;;;0.10;99.90;;;;;;5093799;28;20920;-58
2022/12/14 09:14:03;;;;;;;12.93;6.20;;;0.20;99.90;;;;;;5093607;28;20526;-57
2022/12/14 09:16:30;;;;;;;17.50;11.65;;;0.10;99.90;;;;;;5092057;28;20434;-57
2022/12/14 09:18:57;;;;;;;21.92;13.85;;;0.10;99.90;;;;;;5105935;28;20479;-57
2022/12/14 09:21:26;;;;;;;18.25;13.27;;;0.10;99.90;;;;;;5094894;28;20542;-57
2022/12/14 09:23:52;;;;;;;19.75;13.93;;;0.20;99.90;;;;;;5095217;28;20421;-56
2022/12/14 09:26:21;;;;;;;20.58;14.07;;;0.10;99.90;;;;;;5093613;28;20491;-57
2022/12/14 09:28:50;;;;;;;19.90;13.30;;;0.10;99.90;;;;;;5093519;28;20850;-56
2022/12/14 09:31:20;;;;;;;19.35;13.07;;;0.10;99.90;;;;;;5094038;28;20872;-56
2022/12/14 09:33:47;;;;;;;20.52;13.93;;;0.00;99.90;;;;;;5092336;28;20426;-57
2022/12/14 09:36:20;;;;;;;20.13;13.83;;;0.10;99.90;;;;;;5094738;28;20469;-56
2022/12/14 09:38:49;;;;;;;20.33;14.20;;;0.00;99.90;;;;;;5096213;28;20425;-57
2022/12/14 09:41:26;;;;;;;19.83;13.27;;;0.00;99.90;;;;;;5113601;28;20424;-57
2022/12/14 09:44:00;;;;;;;19.08;13.57;;;0.00;99.90;;;;;;5090386;28;20449;-56
2022/12/14 09:46:42;;;;;;;19.98;14.05;;;0.10;99.90;;;;;;5094212;28;20513;-57
2022/12/14 09:49:19;;;;;;;19.58;13.50;;;0.10;99.90;;;;;;5095377;28;20429;-57
2022/12/14 09:51:46;;;;;;;17.52;13.57;;;0.30;99.90;;;;;;5087829;28;20435;-56
2022/12/14 09:54:18;;;;;;;17.48;13.88;;;0.30;99.90;;;;;;5084023;28;20518;-55
2022/12/14 09:56:45;;;;;;;18.25;12.70;;;0.40;99.90;;;;;;5092981;28;20533;-57
2022/12/14 09:59:16;;;;;;;20.48;13.43;;;0.30;99.90;;;;;;5086650;28;20513;-56
2022/12/14 10:01:55;;;;;;;22.40;14.70;;;0.30;99.90;;;;;;5091857;28;20863;-56
2022/12/14 10:04:36;;;;;;;22.20;15.93;;;0.20;99.90;;;;;;5088801;28;20438;-54
2022/12/14 10:07:16;;;;;;;20.50;14.37;;;0.10;99.90;;;;;;5089511;28;20563;-54
2022/12/14 10:09:50;;;;;;;18.40;12.80;;;0.10;99.90;;;;;;5093408;28;20422;-56
2022/12/14 10:12:27;;;;;;;16.45;11.10;;;0.10;99.90;;;;;;5074662;28;20922;-56
2022/12/14 10:15:07;;;;;;;20.65;13.82;;;0.50;99.90;;;;;;5057684;28;20801;-52
2022/12/14 10:17:54;;;;;;;18.27;13.77;;;0.60;99.90;;;;;;5077907;28;20471;-54
2022/12/14 10:20:30;;;;;;;20.48;14.55;;;0.50;99.90;;;;;;5075436;28;20470;-54
2022/12/14 10:22:58;;;;;;;18.27;13.35;;;0.40;99.90;;;;;;5074690;28;20435;-55
2022/12/14 10:25:28;;;;;;;16.55;12.40;;;0.40;99.90;;;;;;5078189;28;20800;-52
2022/12/14 10:28:00;;;;;;;19.25;13.55;;;0.50;99.90;;;;;;5081416;28;20864;-55
2022/12/14 10:30:28;;;;;;;18.77;14.17;;;0.50;99.90;;;;;;5061868;28;20503;-54
2022/12/14 10:33:04;;;;;;;19.63;13.85;;;0.70;99.90;;;;;;5089485;28;20441;-54
2022/12/14 10:35:35;;;;;;;19.63;13.27;;;0.70;99.90;;;;;;5095411;28;20805;-53
2022/12/14 10:38:06;;;;;;;18.55;13.00;;;0.80;99.90;;;;;;5072078;28;20906;-50
2022/12/14 10:40:35;;;;;;;18.08;13.10;;;0.80;99.90;;;;;;5091329;28;20457;-54
2022/12/14 10:43:22;;;;;;;19.13;14.07;;;0.70;99.90;;;;;;5069302;28;20850;-52
2022/12/14 10:45:56;;;;;;;19.50;14.25;;;0.60;99.90;;;;;;5078876;28;20794;-52
2022/12/14 10:48:36;;;;;;;22.33;16.52;;;0.50;99.90;;;;;;5070381;28;20435;-53
2022/12/14 10:51:07;;;;;;;21.88;15.10;;;0.40;99.90;;;;;;5071421;28;20926;-53
2022/12/14 10:53:39;;;;;;;22.73;15.43;;;0.40;99.90;;;;;;5090232;28;20928;-52
2022/12/14 10:56:14;;;;;;;25.10;17.27;;;0.30;99.90;;;;;;5083297;28;20435;-51
2022/12/14 10:58:41;;;;;;;22.30;16.13;;;0.30;99.90;;;;;;5083629;28;20751;-52
2022/12/14 11:01:13;;;;;;;20.37;14.47;;;0.20;99.90;;;;;;5079083;28;20497;-49
2022/12/14 11:03:41;;;;;;;24.58;16.33;;;0.30;99.90;;;;;;5072028;28;20522;-54
2022/12/14 11:06:14;;;;;;;26.15;16.05;;;0.50;99.90;;;;;;5079008;28;20855;-51
2022/12/14 11:08:44;;;;;;;20.65;14.73;;;0.80;99.90;;;;;;5094758;28;20465;-52
2022/12/14 11:11:16;;;;;;;18.42;13.63;;;0.90;99.90;;;;;;5093466;28;20430;-51
2022/12/14 11:13:51;;;;;;;19.10;14.48;;;1.00;99.90;;;;;;5100821;28;20438;-53
2022/12/14 11:16:27;;;;;;;19.58;14.40;;;1.10;99.90;;;;;;5094778;28;20437;-57
2022/12/14 11:18:59;;;;;;;22.35;13.98;;;1.20;99.90;;;;;;5099526;28;20448;-56
2022/12/14 11:21:32;;;;;;;15.48;11.98;;;1.30;99.90;;;;;;5094099;28;20428;-55
2022/12/14 11:23:59;;;;;;;19.13;14.63;;;1.50;99.90;;;;;;5096157;28;20461;-55
2022/12/14 11:26:31;;;;;;;21.25;14.75;;;1.60;99.90;;;;;;5093484;28;20422;-55
2022/12/14 11:29:01;;;;;;;18.83;14.13;;;1.50;99.90;;;;;;5092813;28;20441;-51
2022/12/14 11:31:33;;;;;;;18.47;14.40;;;1.20;99.90;;;;;;5092941;28;20969;-54
2022/12/14 11:34:02;;;;;;;17.75;14.02;;;1.00;99.90;;;;;;5090966;28;20425;-56
2022/12/14 11:36:33;;;;;;;19.75;13.15;;;1.20;99.90;;;;;;5091567;28;21016;-55
2022/12/14 11:39:03;;;;;;;16.27;12.32;;;1.50;99.90;;;;;;5092882;28;20479;-54
2022/12/14 11:41:34;;;;;;;20.45;14.45;;;1.80;99.90;;;;;;5090699;28;20452;-53
2022/12/14 11:44:04;;;;;;;16.42;12.07;;;2.10;99.90;;;;;;5093063;28;20421;-52
2022/12/14 11:46:45;;;;;;;18.02;13.63;;;2.00;99.90;;;;;;5091524;28;20437;-52
2022/12/14 11:49:21;;;;;;;17.60;13.82;;;1.80;99.90;;;;;;5089909;28;20498;-48
2022/12/14 11:52:06;;;;;;;19.90;14.15;;;1.50;99.90;;;;;;5092750;28;20492;-48
2022/12/14 11:54:34;;;;;;;20.52;13.82;;;1.40;99.90;;;;;;5090119;28;20469;-48
2022/12/14 11:57:07;;;;;;;17.70;13.70;;;1.50;99.90;;;;;;5091476;28;20487;-53
2022/12/14 11:59:39;;;;;;;19.27;13.55;;;1.60;99.90;;;;;;5089014;28;20501;-52
2022/12/14 12:02:16;;;;;;;22.35;14.15;;;1.60;99.90;;;;;;5090046;28;20524;-50
2022/12/14 12:04:46;;;;;;;21.20;16.30;;;1.50;99.90;;;;;;5092592;28;20829;-50
2022/12/14 12:07:20;;;;;;;18.00;14.35;;;1.60;99.90;;;;;;5092176;28;20817;-48
2022/12/14 12:09:47;;;;;;;19.00;14.18;;;1.50;99.90;;;;;;5088166;28;20479;-52
2022/12/14 12:12:21;;;;;;;19.60;14.30;;;1.40;99.90;;;;;;5077711;28;21023;-51
2022/12/14 12:14:54;;;;;;;21.17;15.10;;;1.20;99.90;;;;;;5068835;28;20434;-52
2022/12/14 12:17:38;;;;;;;19.30;15.45;;;1.20;99.90;;;;;;5061924;28;20441;-50
2022/12/14 12:20:33;;;;;;;20.30;15.52;;;1.30;99.90;;;;;;5070396;28;20412;-50
2022/12/14 12:23:07;;;;;;;19.08;15.18;;;1.30;99.90;;;;;;5054847;28;20533;-50
2022/12/14 12:25:36;;;;;;;20.20;14.68;;;1.40;99.90;;;;;;5077041;28;20451;-51
2022/12/14 12:28:11;;;;;;;24.30;16.67;;;1.40;99.90;;;;;;5070844;28;20427;-47
2022/12/14 12:30:43;;;;;;;26.77;17.98;;;1.30;99.90;;;;;;5070875;28;20426;-53
2022/12/14 12:33:21;;;;;;;25.52;18.00;;;1.20;99.90;;;;;;5069876;28;20451;-47
2022/12/14 12:35:54;;;;;;;24.05;17.83;;;1.20;99.90;;;;;;5072428;28;20481;-50
2022/12/14 12:38:37;;;;;;;25.10;17.90;;;1.20;99.90;;;;;;5076875;28;20809;-46
2022/12/14 12:41:18;;;;;;;24.33;16.98;;;1.00;99.90;;;;;;5092122;28;20453;-51
2022/12/14 12:43:53;;;;;;;22.50;17.05;;;1.10;99.90;;;;;;5091269;28;20426;-51
2022/12/14 12:46:25;;;;;;;22.58;16.88;;;1.00;99.90;;;;;;5092200;28;20421;-53
2022/12/14 12:48:57;;;;;;;26.45;18.30;;;1.00;99.90;;;;;;5075543;28;20459;-52
2022/12/14 12:51:27;;;;;;;27.63;19.10;;;1.00;99.90;;;;;;5074030;28;20778;-50
2022/12/14 12:53:58;;;;;;;24.73;20.17;;;1.00;99.90;;;;;;5073592;28;20485;-50
2022/12/14 12:56:29;;;;;;;24.50;17.63;;;1.00;99.90;;;;;;5074839;28;20468;-53
2022/12/14 12:58:59;;;;;;;24.75;17.80;;;1.00;99.90;;;;;;5081112;28;20884;-49
2022/12/14 13:01:31;;;;;;;24.90;17.73;;;1.10;99.90;;;;;;5065490;28;20422;-53
2022/12/14 13:04:02;;;;;;;23.77;17.88;;;1.10;99.90;;;;;;5083471;28;20414;-50
2022/12/14 13:06:34;;;;;;;27.35;18.90;;;1.20;99.90;;;;;;5073715;28;20467;-52
2022/12/14 13:09:11;;;;;;;25.45;19.20;;;1.20;99.90;;;;;;5083643;28;20437;-52